Toledo, OH (43601)

6:30 PM EDT on August 29, 2015 (GMT -0400)
University of Toledo | | Change Station
CLOSE
Current Station
Personal Weather Station
Location: Toledo, OH
Elevation: 604 ft
Nearby Weather Stations

Elev 604 ft 41.66 °N, 83.62 °W | Updated 3 minutes ago

Overcast
Overcast
74.7 °F
Feels Like 75 °F
N
0.0
Wind Variable Wind from NNW
Gusts 0.9 mph

Today
High -- | Low -- °F
--% Chance of Precip.
Yesterday
High -- | Low -- °F
Precip. -- in
6:56 AM 8:12 PM
Full, 100% visible
Pressure 30.04 in
Visibility 10.0 miles
Clouds Scattered Clouds 4300 ft
Mostly Cloudy 5000 ft
Mostly Cloudy 7000 ft
Heat Index 75 °F
Dew Point 68 °F
Humidity 80%
Rainfall Not available.
Snow Depth Not available.
UV 1 out of 12
Pollen 8.60 out of 12
Air Quality Not available.
Flu Activity Not available.
METAR KTDZ 292153Z AUTO 00000KT 10SM SCT043 BKN050 BKN070 26/18 A3005 RMK AO2 RAB36E46 SLP173 P0000 T02610183
Pressure 30.04 in
Visibility 10.0 miles
Clouds Scattered Clouds 4300 ft
Mostly Cloudy 5000 ft
Mostly Cloudy 7000 ft
Heat Index 75 °F
Dew Point 68 °F
Humidity 80%
Rainfall Not available.
Snow Depth Not available.
UV 1 out of 12
Pollen 8.60 out of 12
Air Quality Not available.
Flu Activity Not available.
METAR KTDZ 292153Z AUTO 00000KT 10SM SCT043 BKN050 BKN070 26/18 A3005 RMK AO2 RAB36E46 SLP173 P0000 T02610183

10-Day Weather Forecast

×

Almanac

Astronomy

Aug. 29, 2015 Rise Set
Actual Time
Civil Twilight
Nautical Twilight
Astronomical Twilight
Moon
Length of Visible Light
Length of Day
Tomorrow will be .
, % of the Moon is Illuminated

Today's Extremes

State Highs State Lows

Community

WunderPhotos

Upload Photos

1,850,775 photos uploaded!

WunderBlogs® & News

Nearby

Air Quality

  Air Quality AQ Index Pollutant
Not available.

Snow Depth

Station Depth Elevation

Earthquake Activity

City Distance Mag. Time & Date
Minimum magnitude displayed is 2.5.

Coastal Water Temperatures

Place Temperature

Stations

Nearby Weather Stations

Station Location Temp. Windchill Dew Point Humidity Wind Precip. Elev Updated Type